Time;durP1;ratioP1;P1;durP2;ratioP2;P2;SDS_P1;SDS_P2;PMS_P1;PMS_P2;Temp;Humidity;BMP_temperature;BMP_pressure;BME280_temperature;BME280_humidity;BME280_pressure;Samples;Min_cycle;Max_cycle;Signal;HPM_P1;HPM_P2
2023/07/20 00:00:07;;;;;;;21.30;7.97;;;;;;;28.23;63.39;100496.97;5055619;28;65149;-42
2023/07/20 00:02:44;;;;;;;9.85;7.80;;;;;;;28.33;67.80;100510.00;5057927;28;70661;-45
2023/07/20 00:05:18;;;;;;;;;;;;;;;28.11;76.58;100519.41;5051837;28;66197;-41
2023/07/20 00:07:51;;;;;;;32.90;13.88;;;;;;;28.33;77.00;100528.91;5055457;28;70150;-45
2023/07/20 00:10:23;;;;;;;20.88;12.15;;;;;;;28.37;77.43;100515.84;5056722;28;65598;-44
2023/07/20 00:12:55;;;;;;;26.02;12.48;;;;;;;28.50;75.26;100535.53;5056040;28;70545;-44
2023/07/20 00:15:26;;;;;;;25.75;13.63;;;;;;;28.44;77.41;100520.19;5058308;28;66199;-44
2023/07/20 00:17:58;;;;;;;29.40;16.07;;;;;;;28.45;80.06;100527.25;5058880;28;69985;-44
2023/07/20 00:20:30;;;;;;;32.33;17.88;;;;;;;28.52;74.00;100519.13;5055345;28;65408;-42
2023/07/20 00:23:01;;;;;;;24.35;16.48;;;;;;;28.53;81.09;100534.28;5049417;28;70478;-42
2023/07/20 00:25:33;;;;;;;28.80;17.85;;;;;;;28.12;82.68;100478.75;5049771;28;66873;-45
2023/07/20 00:28:05;;;;;;;29.30;18.27;;;;;;;28.58;79.26;100541.72;5051369;28;70158;-44
2023/07/20 00:30:38;;;;;;;36.65;18.67;;;;;;;28.57;82.72;100534.69;5055259;28;66085;-44
2023/07/20 00:33:13;;;;;;;26.55;16.15;;;;;;;28.26;81.99;100479.56;5050890;28;69814;-45
2023/07/20 00:35:44;;;;;;;31.70;16.50;;;;;;;28.80;73.53;100545.78;5055501;28;66653;-45
2023/07/20 00:38:18;;;;;;;20.00;14.55;;;;;;;28.91;72.24;100555.91;5057437;28;70294;-46
2023/07/20 00:40:50;;;;;;;23.27;13.95;;;;;;;28.92;71.95;100554.88;5054748;28;66690;-45
2023/07/20 00:43:21;;;;;;;24.93;14.70;;;;;;;28.85;71.19;100537.88;5056203;28;70488;-44
2023/07/20 00:45:53;;;;;;;21.63;13.00;;;;;;;28.90;71.08;100545.34;5048575;28;66511;-45
2023/07/20 00:48:26;;;;;;;19.10;13.85;;;;;;;29.03;70.34;100561.53;5053737;28;70080;-45
2023/07/20 00:50:58;;;;;;;26.13;13.25;;;;;;;28.91;70.67;100542.41;5041335;28;66661;-44
2023/07/20 00:53:30;;;;;;;18.50;13.00;;;;;;;29.10;69.89;100572.28;5052832;28;69516;-44
2023/07/20 00:56:03;;;;;;;16.13;12.20;;;;;;;29.08;70.05;100574.34;5051802;28;65674;-44
2023/07/20 00:58:37;;;;;;;21.70;13.23;;;;;;;29.07;69.48;100570.00;5053138;28;70178;-44
2023/07/20 01:01:08;;;;;;;17.85;11.75;;;;;;;29.09;69.55;100576.03;5046019;28;66228;-44
2023/07/20 01:03:42;;;;;;;19.42;12.00;;;;;;;29.14;69.45;100584.28;5053296;28;69264;-44
2023/07/20 01:06:26;;;;;;;12.95;11.07;;;;;;;28.58;68.80;100503.94;5050527;28;66637;-45
2023/07/20 01:08:58;;;;;;;12.27;10.98;;;;;;;29.17;68.93;100589.28;5055380;28;70238;-44
2023/07/20 01:11:44;;;;;;;19.80;12.25;;;;;;;29.06;69.32;100587.25;5047015;28;66585;-44
2023/07/20 01:14:17;;;;;;;14.38;12.02;;;;;;;28.69;69.32;100516.78;5049017;28;70222;-44
2023/07/20 01:16:52;;;;;;;11.88;10.75;;;;;;;29.18;68.70;100604.44;5054077;28;65962;-44
2023/07/20 01:19:23;;;;;;;14.05;11.45;;;;;;;29.09;68.65;100587.66;5052538;28;70484;-44
2023/07/20 01:22:02;;;;;;;14.68;11.57;;;;;;;29.20;68.67;100615.88;5051115;28;66857;-44
2023/07/20 01:24:50;;;;;;;12.05;10.85;;;;;;;29.20;68.31;100613.16;5043207;28;70640;-44
2023/07/20 01:27:37;;;;;;;12.30;11.02;;;;;;;29.13;68.61;100612.34;5055787;28;66010;-44
2023/07/20 01:30:30;;;;;;;15.82;10.90;;;;;;;29.24;68.80;100617.06;5050607;28;70461;-45
2023/07/20 01:33:02;;;;;;;;;;;;;;;28.83;69.75;100604.75;5061518;28;66086;-45
2023/07/20 01:35:34;;;;;;;12.07;10.30;;;;;;;29.15;69.07;100607.56;5059700;28;70231;-43
2023/07/20 01:38:08;;;;;;;11.18;9.88;;;;;;;28.62;68.10;100505.19;5061560;28;66809;-44
2023/07/20 01:40:41;;;;;;;14.02;9.93;;;;;;;28.66;68.31;100517.19;5053543;28;71047;-44
2023/07/20 01:43:13;;;;;;;10.90;9.65;;;;;;;29.28;68.26;100617.47;5060329;28;65833;-44
2023/07/20 01:45:45;;;;;;;10.85;9.80;;;;;;;29.18;68.14;100607.16;5057526;28;69906;-45
2023/07/20 01:48:18;;;;;;;;;;;;;;;28.91;69.30;100617.19;5061257;28;65652;-44
2023/07/20 01:50:49;;;;;;;10.05;8.98;;;;;;;29.25;68.59;100616.03;5059817;28;70545;-44
2023/07/20 01:53:21;;;;;;;9.88;8.90;;;;;;;29.30;68.32;100616.22;5055524;28;66583;-44
2023/07/20 01:55:58;;;;;;;10.82;8.52;;;;;;;29.30;68.16;100624.31;5060799;28;70596;-44
2023/07/20 01:58:30;;;;;;;8.65;7.80;;;;;;;29.33;68.67;100620.34;5050135;28;66283;-44
2023/07/20 02:01:02;;;;;;;11.50;9.10;;;;;;;29.30;68.28;100624.31;5054059;28;70494;-44
2023/07/20 02:03:34;;;;;;;9.18;8.10;;;;;;;29.35;68.47;100632.59;5054312;28;66700;-44
2023/07/20 02:06:05;;;;;;;9.10;8.30;;;;;;;29.36;68.50;100634.28;5061302;28;70397;-44
2023/07/20 02:08:37;;;;;;;9.05;8.15;;;;;;;29.33;68.73;100626.59;5055783;28;66380;-46
2023/07/20 02:11:09;;;;;;;10.00;8.52;;;;;;;29.38;68.05;100628.66;5056120;28;70003;-45
2023/07/20 02:13:41;;;;;;;8.43;7.63;;;;;;;29.40;68.17;100638.19;5049056;28;66301;-44
2023/07/20 02:16:13;;;;;;;9.55;8.18;;;;;;;29.22;68.70;100596.72;5061548;28;70330;-45
2023/07/20 02:18:44;;;;;;;8.07;7.47;;;;;;;29.42;68.60;100635.28;5040612;28;65454;-45
2023/07/20 02:21:16;;;;;;;8.30;7.63;;;;;;;29.08;68.35;100585.16;5048713;28;70708;-45
2023/07/20 02:23:47;;;;;;;7.90;7.20;;;;;;;29.39;68.08;100624.88;5051792;28;66918;-44
2023/07/20 02:26:19;;;;;;;7.20;6.65;;;;;;;29.44;68.17;100632.34;5053623;28;69194;-43
2023/07/20 02:28:50;;;;;;;;;;;;;;;29.06;69.21;100627.75;5061859;28;66607;-45
2023/07/20 02:31:21;;;;;;;7.82;6.90;;;;;;;29.43;68.32;100622.59;5060109;28;70507;-45
2023/07/20 02:33:53;;;;;;;7.45;6.72;;;;;;;29.43;68.90;100619.91;5060850;28;66557;-43
2023/07/20 02:36:24;;;;;;;6.93;6.40;;;;;;;29.44;68.83;100621.56;5048700;28;70264;-44
2023/07/20 02:38:56;;;;;;;9.90;6.70;;;;;;;29.49;68.52;100616.31;5055351;28;66165;-44
2023/07/20 02:41:27;;;;;;;6.88;6.32;;;;;;;29.50;68.90;100616.09;5059608;28;69761;-44
2023/07/20 02:43:58;;;;;;;6.50;5.90;;;;;;;29.53;68.61;100612.97;5035210;28;66608;-45
2023/07/20 02:46:30;;;;;;;6.50;5.83;;;;;;;29.53;68.80;100614.84;5056618;28;69977;-44
2023/07/20 02:49:02;;;;;;;5.47;4.97;;;;;;;29.44;68.62;100599.94;5056082;28;66152;-44
2023/07/20 02:51:33;;;;;;;6.53;5.80;;;;;;;29.56;68.49;100614.41;5055655;28;70885;-45
2023/07/20 02:54:05;;;;;;;6.05;5.55;;;;;;;29.51;68.51;100596.16;5058751;28;67030;-45
2023/07/20 02:56:36;;;;;;;6.50;5.90;;;;;;;29.59;68.29;100608.59;5057812;28;70208;-45
2023/07/20 02:59:08;;;;;;;5.60;5.00;;;;;;;29.59;68.41;100614.00;5058223;28;66262;-44
2023/07/20 03:01:42;;;;;;;6.50;5.28;;;;;;;29.61;68.43;100606.47;5058371;28;70088;-45
2023/07/20 03:04:13;;;;;;;7.32;6.10;;;;;;;29.58;68.70;100596.09;5059987;28;66356;-44
2023/07/20 03:06:45;;;;;;;5.82;5.28;;;;;;;29.65;68.35;100602.31;5057309;28;70218;-44
2023/07/20 03:09:16;;;;;;;6.00;5.40;;;;;;;29.62;68.19;100592.75;5055630;28;67109;-44
2023/07/20 03:11:49;;;;;;;7.05;5.60;;;;;;;29.68;68.76;100593.78;5060405;28;68942;-45
2023/07/20 03:14:20;;;;;;;5.28;4.95;;;;;;;29.71;68.33;100598.75;5060772;28;65796;-45
2023/07/20 03:16:52;;;;;;;7.88;5.45;;;;;;;29.71;68.42;100601.44;5054115;28;70212;-44
2023/07/20 03:19:24;;;;;;;5.85;5.30;;;;;;;29.70;68.09;100583.59;5054805;28;66080;-44
2023/07/20 03:21:56;;;;;;;5.95;5.43;;;;;;;29.71;68.46;100579.81;5058539;28;70132;-45
2023/07/20 03:24:27;;;;;;;5.20;4.70;;;;;;;29.67;68.20;100578.63;5060208;28;65802;-45
2023/07/20 03:26:59;;;;;;;5.77;5.07;;;;;;;29.69;68.13;100571.09;5053579;28;69023;-44
2023/07/20 03:29:33;;;;;;;5.32;4.85;;;;;;;29.78;68.56;100575.19;5054498;28;66508;-43
2023/07/20 03:32:05;;;;;;;5.32;4.88;;;;;;;29.80;68.20;100581.19;5056859;28;70637;-44
2023/07/20 03:34:36;;;;;;;;;;;;;;;29.45;69.77;100580.81;5057637;28;65580;-44
2023/07/20 03:37:07;;;;;;;4.60;4.20;;;;;;;29.77;68.72;100562.72;5054575;28;70165;-44
2023/07/20 03:39:39;;;;;;;6.68;4.53;;;;;;;29.83;68.18;100569.13;5048999;28;66093;-45
2023/07/20 03:42:10;;;;;;;4.82;4.45;;;;;;;29.88;68.49;100579.28;5058726;28;69176;-45
2023/07/20 03:44:42;;;;;;;5.35;4.80;;;;;;;29.90;68.69;100569.06;5054338;28;66439;-46
2023/07/20 03:47:13;;;;;;;6.03;5.00;;;;;;;29.92;68.37;100565.09;5060339;28;70402;-45
2023/07/20 03:49:45;;;;;;;4.68;4.28;;;;;;;29.76;68.46;100544.84;5062641;28;66236;-46
2023/07/20 03:52:16;;;;;;;5.97;5.13;;;;;;;29.93;67.95;100563.22;5055420;28;70620;-48
2023/07/20 03:54:47;;;;;;;5.72;5.22;;;;;;;29.83;68.47;100545.59;5057831;28;65371;-46
2023/07/20 03:57:19;;;;;;;4.30;4.00;;;;;;;30.00;67.94;100566.69;5055503;28;69559;-45
2023/07/20 03:59:50;;;;;;;6.07;4.60;;;;;;;29.96;68.11;100554.66;5056466;28;65038;-46
2023/07/20 04:02:22;;;;;;;4.83;4.37;;;;;;;30.00;67.81;100566.69;5061396;28;69020;-43
2023/07/20 04:04:53;;;;;;;4.40;4.00;;;;;;;30.07;67.78;100567.47;5058700;28;65047;-45
2023/07/20 04:07:25;;;;;;;5.00;4.57;;;;;;;30.09;68.13;100578.88;5042552;28;69891;-44
2023/07/20 04:09:56;;;;;;;4.43;4.03;;;;;;;30.04;67.92;100567.91;5057751;28;66439;-44
2023/07/20 04:12:28;;;;;;;4.78;4.32;;;;;;;30.01;67.68;100555.66;5055202;28;69688;-45
2023/07/20 04:14:59;;;;;;;5.60;4.07;;;;;;;30.15;68.20;100575.28;5048243;28;66104;-44
2023/07/20 04:17:32;;;;;;;4.97;4.47;;;;;;;30.19;68.08;100571.06;5054974;28;69756;-45
2023/07/20 04:20:05;;;;;;;4.32;3.92;;;;;;;30.20;68.37;100572.75;5045249;28;66188;-44
2023/07/20 04:22:36;;;;;;;4.65;3.80;;;;;;;30.22;68.02;100565.25;5058313;28;69782;-44
2023/07/20 04:25:12;;;;;;;4.43;4.03;;;;;;;30.24;67.95;100573.97;5049602;28;66581;-45
2023/07/20 04:27:43;;;;;;;6.25;4.28;;;;;;;30.25;68.26;100578.31;5058088;28;69866;-44
2023/07/20 04:30:19;;;;;;;;;;;;;;;29.91;69.22;100568.00;5058662;28;66153;-45
2023/07/20 04:32:50;;;;;;;4.95;4.13;;;;;;;30.24;68.32;100562.31;5055611;28;70933;-45
2023/07/20 04:35:54;;;;;;;4.07;3.67;;;;;;;30.18;68.38;100569.44;5054065;28;65711;-43
2023/07/20 04:38:31;;;;;;;4.63;3.97;;;;;;;30.33;67.71;100566.38;5057610;28;70080;-45
2023/07/20 04:41:22;;;;;;;4.40;4.00;;;;;;;30.36;67.69;100559.69;5054062;28;66794;-45
2023/07/20 04:43:56;;;;;;;4.22;3.83;;;;;;;30.39;67.75;100564.66;5054152;28;70409;-45
2023/07/20 04:46:30;;;;;;;4.50;3.80;;;;;;;30.42;67.72;100564.22;5053446;28;66537;-43
2023/07/20 04:49:04;;;;;;;5.45;3.78;;;;;;;29.97;67.79;100484.09;5054360;28;70479;-44
2023/07/20 04:51:40;;;;;;;3.80;3.50;;;;;;;30.46;67.80;100560.03;5057851;28;65440;-44
2023/07/20 04:54:11;;;;;;;4.95;4.18;;;;;;;30.46;67.89;100554.59;5050878;28;70263;-45
2023/07/20 04:56:43;;;;;;;7.10;3.58;;;;;;;30.48;67.53;100552.50;5055978;28;65628;-44
2023/07/20 04:59:16;;;;;;;3.85;3.55;;;;;;;30.39;67.66;100532.19;5047035;28;70401;-44
2023/07/20 05:01:48;;;;;;;4.88;3.95;;;;;;;30.53;67.95;100549.94;5061828;28;65516;-44
2023/07/20 05:04:19;;;;;;;4.32;3.92;;;;;;;30.53;67.77;100560.75;5054468;28;70738;-44
2023/07/20 05:06:51;;;;;;;;;;;;;;;30.20;68.88;100551.09;5053023;28;66251;-44
2023/07/20 05:09:22;;;;;;;5.57;4.07;;;;;;;30.55;67.85;100553.25;5057131;28;69811;-48
2023/07/20 05:11:54;;;;;;;4.50;3.90;;;;;;;30.49;67.68;100532.50;5040136;28;66052;-45
2023/07/20 05:14:25;;;;;;;3.97;3.60;;;;;;;30.58;68.09;100536.53;5050703;28;70196;-45
2023/07/20 05:16:58;;;;;;;5.05;3.83;;;;;;;30.63;67.54;100539.41;5052292;28;66586;-44
2023/07/20 05:19:30;;;;;;;4.90;4.35;;;;;;;30.17;67.95;100462.28;5055458;28;70157;-44
2023/07/20 05:22:02;;;;;;;4.57;4.13;;;;;;;30.64;67.98;100530.22;5058917;28;66752;-45
2023/07/20 05:24:34;;;;;;;4.57;4.18;;;;;;;30.66;67.48;100532.72;5068988;28;69363;-45
2023/07/20 05:27:06;;;;;;;4.03;3.60;;;;;;;30.68;67.87;100525.19;5054999;28;66273;-43
2023/07/20 05:29:37;;;;;;;5.50;4.28;;;;;;;30.68;68.02;100520.59;5053173;28;69969;-44
2023/07/20 05:32:09;;;;;;;6.18;4.80;;;;;;;30.67;67.85;100513.56;5051917;28;66529;-45
2023/07/20 05:34:41;;;;;;;5.00;4.18;;;;;;;30.73;67.95;100509.91;5043412;28;70525;-44
2023/07/20 05:37:12;;;;;;;4.13;3.72;;;;;;;30.70;67.72;100504.97;5052224;28;65463;-44
2023/07/20 05:39:44;;;;;;;5.07;3.95;;;;;;;30.72;67.68;100510.97;5053267;28;70022;-44
2023/07/20 05:42:15;;;;;;;4.68;3.95;;;;;;;30.73;67.85;100499.09;5049656;28;65215;-44
2023/07/20 05:44:52;;;;;;;4.18;3.78;;;;;;;30.26;67.67;100428.47;5055645;28;70196;-44
2023/07/20 05:47:24;;;;;;;7.78;3.67;;;;;;;30.74;67.37;100491.78;5054943;28;66343;-45
2023/07/20 05:49:55;;;;;;;4.05;3.75;;;;;;;30.74;67.79;100480.97;5055222;28;70061;-44
2023/07/20 05:52:27;;;;;;;5.05;4.55;;;;;;;30.73;67.75;100480.13;5068177;28;66080;-45
2023/07/20 05:54:58;;;;;;;4.25;3.83;;;;;;;30.81;67.53;100480.88;5048648;28;69452;-43
2023/07/20 05:57:30;;;;;;;4.13;3.72;;;;;;;30.80;67.74;100479.25;5052521;28;65485;-43
2023/07/20 06:00:02;;;;;;;7.80;3.90;;;;;;;30.85;67.49;100476.69;5050540;28;69080;-43
2023/07/20 06:02:40;;;;;;;5.20;3.40;;;;;;;30.75;67.68;100465.53;5055926;28;66399;-44
2023/07/20 06:05:12;;;;;;;4.22;3.70;;;;;;;30.88;67.52;100476.22;5053805;28;69776;-44
2023/07/20 06:07:43;;;;;;;;;;;;;;;30.59;69.04;100478.66;5059324;28;65855;-43
2023/07/20 06:10:14;;;;;;;3.92;3.60;;;;;;;30.78;67.43;100448.81;5052355;28;69929;-43
2023/07/20 06:12:46;;;;;;;4.00;3.50;;;;;;;30.95;67.33;100460.69;5053264;28;65579;-44
2023/07/20 06:15:34;;;;;;;3.85;3.50;;;;;;;30.65;67.36;100422.78;5059390;28;69893;-43
2023/07/20 06:18:06;;;;;;;5.50;3.10;;;;;;;30.97;67.30;100453.16;5055557;28;66374;-44
2023/07/20 06:20:38;;;;;;;3.35;3.05;;;;;;;30.83;67.33;100419.22;5060588;28;69943;-44
2023/07/20 06:23:10;;;;;;;3.60;3.30;;;;;;;31.07;67.50;100452.63;5061572;28;66309;-44
2023/07/20 06:25:41;;;;;;;3.10;2.78;;;;;;;30.65;67.17;100383.00;5060805;28;69976;-44
2023/07/20 06:28:14;;;;;;;6.30;3.25;;;;;;;30.53;66.96;100346.09;5053601;28;65544;-43
2023/07/20 06:30:45;;;;;;;3.50;3.17;;;;;;;31.13;66.88;100441.66;5054632;28;70738;-44
2023/07/20 06:33:17;;;;;;;3.25;2.95;;;;;;;31.19;66.83;100441.78;5055757;28;66747;-44
2023/07/20 06:35:48;;;;;;;5.50;3.47;;;;;;;31.07;67.16;100415.50;5059924;28;70768;-44
2023/07/20 06:38:20;;;;;;;6.55;2.80;;;;;;;31.25;67.21;100427.31;5057820;28;65715;-44
2023/07/20 06:40:54;;;;;;;7.38;3.10;;;;;;;31.26;66.84;100418.97;5058690;28;70770;-44
2023/07/20 06:43:26;;;;;;;4.78;3.25;;;;;;;31.28;66.89;100416.00;5053595;28;66134;-45
2023/07/20 06:46:00;;;;;;;3.53;3.00;;;;;;;31.33;66.68;100413.41;5050265;28;70164;-44
2023/07/20 06:48:31;;;;;;;4.22;3.50;;;;;;;31.34;66.72;100413.19;5060859;28;65278;-44
2023/07/20 06:51:03;;;;;;;4.72;3.33;;;;;;;31.36;66.74;100399.41;5061976;28;70064;-44
2023/07/20 06:53:34;;;;;;;4.57;3.25;;;;;;;31.38;66.90;100400.84;5059472;28;65509;-44
2023/07/20 06:56:06;;;;;;;4.22;3.10;;;;;;;31.41;67.04;100388.72;5050098;28;69546;-44
2023/07/20 06:58:37;;;;;;;3.97;3.15;;;;;;;31.13;66.81;100349.53;5050967;28;66425;-44
2023/07/20 07:01:09;;;;;;;3.78;3.33;;;;;;;31.42;66.73;100384.91;5054948;28;69105;-44
2023/07/20 07:03:41;;;;;;;6.60;3.50;;;;;;;31.50;66.36;100387.28;5059953;28;68537;-45
2023/07/20 07:06:12;;;;;;;5.25;3.03;;;;;;;31.24;66.65;100338.97;5063642;28;70136;-44
2023/07/20 07:08:44;;;;;;;3.20;2.90;;;;;;;31.50;66.50;100376.44;5048439;28;66801;-44
2023/07/20 07:11:16;;;;;;;3.60;3.30;;;;;;;31.42;66.31;100367.84;5053776;28;69885;-45
2023/07/20 07:13:50;;;;;;;3.88;3.47;;;;;;;31.59;66.26;100375.03;5061495;28;66842;-45
2023/07/20 07:16:22;;;;;;;3.65;3.08;;;;;;;31.59;66.33;100368.75;5055553;28;69732;-44
2023/07/20 07:18:54;;;;;;;3.88;3.17;;;;;;;31.66;66.15;100382.22;5059742;28;65712;-44
2023/07/20 07:21:30;;;;;;;3.83;3.42;;;;;;;31.54;66.16;100339.69;5057010;28;70115;-45
2023/07/20 07:24:01;;;;;;;5.32;3.50;;;;;;;31.67;66.36;100354.03;5061671;28;66684;-45
2023/07/20 07:26:33;;;;;;;3.75;3.40;;;;;;;31.69;66.07;100360.03;5054575;28;69725;-45
2023/07/20 07:29:04;;;;;;;5.65;3.85;;;;;;;31.71;66.15;100366.88;5055323;28;65858;-43
2023/07/20 07:31:36;;;;;;;5.38;3.60;;;;;;;31.72;66.44;100367.69;5055517;28;69195;-44
2023/07/20 07:34:07;;;;;;;;;;;;;;;31.41;66.70;100366.19;5053461;28;66630;-44
2023/07/20 07:36:38;;;;;;;4.25;3.72;;;;;;;31.72;65.98;100367.69;5047601;28;70812;-45
2023/07/20 07:39:10;;;;;;;4.00;3.55;;;;;;;31.73;66.19;100361.19;5056945;28;65244;-43
2023/07/20 07:41:44;;;;;;;5.55;3.47;;;;;;;31.76;65.81;100363.44;5056886;28;69407;-44
2023/07/20 07:44:16;;;;;;;4.38;3.20;;;;;;;31.59;66.10;100337.09;5053971;28;66691;-43
2023/07/20 07:46:47;;;;;;;9.68;3.75;;;;;;;31.73;65.72;100363.91;5056532;28;70227;-45
2023/07/20 07:49:19;;;;;;;5.93;4.00;;;;;;;31.61;65.85;100326.78;5058176;28;65584;-45
2023/07/20 07:51:50;;;;;;;4.10;3.70;;;;;;;31.79;65.82;100352.13;5044630;28;70297;-45
2023/07/20 07:54:22;;;;;;;4.82;3.75;;;;;;;31.80;65.74;100359.19;5062619;28;65445;-43
2023/07/20 07:56:53;;;;;;;4.28;3.38;;;;;;;31.81;65.67;100377.94;5061371;28;69900;-44
2023/07/20 07:59:25;;;;;;;4.25;3.05;;;;;;;31.84;65.38;100387.47;5049058;28;66614;-43
2023/07/20 08:01:58;;;;;;;3.90;3.53;;;;;;;31.73;65.24;100358.50;5052155;28;69530;-44
2023/07/20 08:04:30;;;;;;;4.68;3.38;;;;;;;31.80;65.08;100372.75;5057030;28;66455;-43
2023/07/20 08:07:05;;;;;;;3.90;3.47;;;;;;;31.73;65.54;100359.34;5056934;28;70047;-43
2023/07/20 08:09:36;;;;;;;4.32;3.58;;;;;;;31.79;65.29;100379.25;5059626;28;65405;-44
2023/07/20 08:12:08;;;;;;;3.30;2.95;;;;;;;31.83;65.20;100386.66;5053791;28;70162;-44
2023/07/20 08:14:40;;;;;;;3.30;3.00;;;;;;;31.76;65.21;100374.28;5053749;28;65418;-44
2023/07/20 08:17:11;;;;;;;4.45;2.90;;;;;;;31.80;65.42;100389.84;5056911;28;69324;-43
2023/07/20 08:19:44;;;;;;;5.05;3.05;;;;;;;31.77;65.86;100376.78;5056215;28;66211;-43
2023/07/20 08:22:15;;;;;;;4.00;3.63;;;;;;;31.76;65.94;100363.44;5059720;28;70489;-43
2023/07/20 08:24:47;;;;;;;3.35;3.05;;;;;;;31.76;65.72;100352.59;5058392;28;65936;-44
2023/07/20 08:27:18;;;;;;;4.53;3.08;;;;;;;31.76;65.75;100341.75;5053537;28;70779;-44
2023/07/20 08:29:50;;;;;;;3.55;3.25;;;;;;;31.61;65.78;100320.56;5056579;28;66195;-45
2023/07/20 08:32:21;;;;;;;3.50;3.20;;;;;;;31.78;65.73;100350.47;5055430;28;69950;-44
2023/07/20 08:34:53;;;;;;;3.97;3.35;;;;;;;31.69;65.33;100332.94;5057475;28;66406;-44
2023/07/20 08:37:24;;;;;;;;;;;;;;;31.47;66.53;100349.00;5053431;28;70305;-44
2023/07/20 08:39:55;;;;;;;3.17;2.80;;;;;;;31.75;65.66;100356.38;5058766;28;67129;-45
2023/07/20 08:42:29;;;;;;;3.58;3.25;;;;;;;31.16;65.36;100256.97;5056740;28;69218;-44
2023/07/20 08:45:01;;;;;;;3.15;2.70;;;;;;;31.61;65.49;100329.50;5056879;28;66120;-45
2023/07/20 08:47:32;;;;;;;3.67;3.25;;;;;;;31.76;65.31;100358.00;5054749;28;69825;-43
2023/07/20 08:50:08;;;;;;;2.97;2.78;;;;;;;31.19;65.15;100265.69;5072173;28;65868;-44
2023/07/20 08:52:39;;;;;;;5.55;3.20;;;;;;;31.74;65.55;100354.72;5056886;28;69603;-45
2023/07/20 08:55:11;;;;;;;3.75;3.33;;;;;;;31.73;65.19;100342.22;5058457;28;66028;-44
2023/07/20 08:57:48;;;;;;;3.72;3.20;;;;;;;31.11;65.42;100237.06;5056448;28;69429;-43
2023/07/20 09:00:21;;;;;;;3.08;2.80;;;;;;;31.69;65.23;100324.78;5052461;28;66525;-44
2023/07/20 09:02:54;;;;;;;5.40;3.30;;;;;;;31.26;65.40;100255.53;5055685;28;70582;-43
2023/07/20 09:05:26;;;;;;;3.45;2.58;;;;;;;31.54;65.49;100306.31;5053705;28;65669;-43
2023/07/20 09:07:57;;;;;;;4.63;3.08;;;;;;;31.67;65.38;100322.31;5056221;28;69939;-44
2023/07/20 09:10:29;;;;;;;2.95;2.65;;;;;;;31.67;65.76;100316.06;5051483;28;65768;-44
2023/07/20 09:13:00;;;;;;;3.15;2.83;;;;;;;31.65;65.67;100329.03;5052351;28;70247;-46
2023/07/20 09:15:32;;;;;;;3.70;3.40;;;;;;;31.63;65.90;100331.19;5052593;28;65632;-43
2023/07/20 09:18:04;;;;;;;3.08;2.88;;;;;;;31.63;66.04;100320.34;5059853;28;69031;-44
2023/07/20 09:20:37;;;;;;;3.58;3.25;;;;;;;31.61;66.04;100323.28;5058990;28;66505;-50
2023/07/20 09:23:09;;;;;;;3.75;3.45;;;;;;;31.60;66.06;100327.06;5060664;28;70291;-43
2023/07/20 09:25:41;;;;;;;4.90;3.85;;;;;;;31.55;66.25;100316.91;5058236;28;66092;-43
2023/07/20 09:28:13;;;;;;;4.93;3.75;;;;;;;31.42;66.24;100295.47;5059248;28;70734;-43
2023/07/20 09:30:45;;;;;;;4.28;3.85;;;;;;;31.09;66.33;100240.03;5058294;28;65640;-43
2023/07/20 09:33:23;;;;;;;4.68;3.83;;;;;;;31.41;66.56;100296.56;5046600;28;70782;-43
2023/07/20 09:36:03;;;;;;;4.93;3.95;;;;;;;30.85;67.09;100208.59;5057235;28;66201;-44
2023/07/20 09:38:54;;;;;;;4.32;3.92;;;;;;;31.44;66.79;100300.69;5058920;28;69795;-44
2023/07/20 09:41:28;;;;;;;4.15;3.85;;;;;;;31.46;67.01;100310.22;5054406;28;65905;-44
2023/07/20 09:44:02;;;;;;;4.55;4.07;;;;;;;31.47;66.81;100311.03;5048121;28;70439;-43
2023/07/20 09:46:55;;;;;;;4.00;3.60;;;;;;;31.32;67.07;100298.78;5058811;28;65739;-44
2023/07/20 09:49:28;;;;;;;4.20;3.75;;;;;;;31.29;67.19;100280.28;5044208;28;69742;-44
2023/07/20 09:52:21;;;;;;;5.03;4.53;;;;;;;31.39;67.48;100310.31;5049272;28;66375;-43
2023/07/20 09:54:56;;;;;;;4.30;3.80;;;;;;;31.24;67.31;100282.06;5059587;28;69614;-44
2023/07/20 09:57:28;;;;;;;8.25;4.40;;;;;;;31.40;67.11;100300.34;5061431;28;66307;-44
2023/07/20 09:59:59;;;;;;;;;;;;;;;31.04;69.10;100312.22;5057548;28;69660;-44
2023/07/20 10:02:37;;;;;;;6.25;5.75;;;;;;;31.22;67.40;100292.31;5062249;28;66126;-44
2023/07/20 10:05:11;;;;;;;4.70;4.25;;;;;;;31.32;67.47;100303.38;5059138;28;70537;-43
2023/07/20 10:07:49;;;;;;;8.57;4.65;;;;;;;31.31;67.82;100317.97;5059358;28;66646;-44
2023/07/20 10:10:43;;;;;;;5.65;5.15;;;;;;;31.03;67.67;100268.03;5059768;28;70286;-44
2023/07/20 10:13:21;;;;;;;5.82;5.25;;;;;;;31.30;68.07;100322.56;5061839;28;66178;-44
2023/07/20 10:16:05;;;;;;;6.18;5.35;;;;;;;30.78;68.08;100240.34;5057309;28;70054;-45
2023/07/20 10:19:14;;;;;;;8.18;4.43;;;;;;;30.67;68.66;100242.81;5059176;28;66126;-44
2023/07/20 10:21:51;;;;;;;5.47;4.28;;;;;;;31.29;67.73;100325.53;5058376;28;69406;-43
2023/07/20 10:24:30;;;;;;;5.40;4.30;;;;;;;31.28;67.82;100329.28;5056541;28;66087;-43
2023/07/20 10:27:02;;;;;;;5.18;4.78;;;;;;;31.32;67.79;100335.91;5057643;28;70077;-44
2023/07/20 10:29:34;;;;;;;4.90;4.47;;;;;;;31.28;67.52;100321.97;5060223;28;65486;-45
2023/07/20 10:32:05;;;;;;;;;;;;;;;30.97;69.49;100331.28;5054976;28;69201;-44
2023/07/20 10:34:37;;;;;;;8.50;6.00;;;;;;;31.26;67.91;100331.41;5055024;28;66607;-43
2023/07/20 10:37:10;;;;;;;22.42;14.23;;;;;;;31.30;68.01;100327.16;5057987;28;69108;-45
2023/07/20 10:39:43;;;;;;;59.92;41.55;;;;;;;31.23;69.48;100326.44;5057640;28;67854;-44
2023/07/20 10:42:15;;;;;;;54.05;34.08;;;;;;;31.22;70.31;100327.53;5058149;28;69405;-44
2023/07/20 10:44:47;;;;;;;38.72;26.17;;;;;;;30.87;70.77;100295.81;5053850;28;66485;-44
2023/07/20 10:47:18;;;;;;;;;;;;;;;30.70;74.00;100339.81;5059882;28;70652;-45
2023/07/20 10:50:03;;;;;;;26.55;18.05;;;;;;;30.93;73.33;100349.88;5056663;28;65433;-44
2023/07/20 10:52:39;;;;;;;19.40;15.18;;;;;;;30.99;72.32;100358.13;5057684;28;70502;-45
2023/07/20 10:55:17;;;;;;;18.63;12.95;;;;;;;30.91;73.82;100345.75;5050470;28;65073;-45
2023/07/20 10:58:09;;;;;;;14.48;12.23;;;;;;;30.93;72.43;100371.56;5054009;28;70477;-45
2023/07/20 11:00:57;;;;;;;;;;;;;;;30.78;73.60;100356.75;5040677;28;65738;-45
2023/07/20 11:03:36;;;;;;;16.95;10.98;;;;;;;30.93;71.24;100333.63;5056124;28;69526;-46
2023/07/20 11:06:26;;;;;;;15.68;10.98;;;;;;;31.08;71.80;100367.56;5055233;28;66314;-45
2023/07/20 11:09:04;;;;;;;9.93;8.95;;;;;;;31.21;71.09;100361.09;5054620;28;70384;-45
2023/07/20 11:11:40;;;;;;;16.17;9.67;;;;;;;30.78;70.92;100300.72;5057492;28;65436;-45
2023/07/20 11:14:22;;;;;;;13.10;8.30;;;;;;;31.27;70.47;100376.41;5047069;28;69234;-46
2023/07/20 11:16:55;;;;;;;9.73;8.38;;;;;;;31.23;70.42;100367.09;5060415;28;66293;-46
2023/07/20 11:19:27;;;;;;;9.05;8.18;;;;;;;31.31;70.70;100389.25;5056334;28;70676;-44
2023/07/20 11:22:07;;;;;;;9.05;8.32;;;;;;;30.75;70.42;100292.25;5058301;28;66133;-44
2023/07/20 11:24:40;;;;;;;8.32;7.60;;;;;;;30.73;70.44;100285.19;5057630;28;70728;-45
2023/07/20 11:27:11;;;;;;;13.10;8.02;;;;;;;31.31;70.59;100385.72;5058109;28;66447;-45
2023/07/20 11:29:45;;;;;;;10.65;7.95;;;;;;;31.06;70.45;100348.00;5052574;28;70316;-45
2023/07/20 11:32:26;;;;;;;10.13;8.35;;;;;;;31.30;70.75;100393.03;5059669;28;65955;-46
2023/07/20 11:34:57;;;;;;;13.82;9.07;;;;;;;31.34;70.62;100390.66;5056662;28;70762;-45
2023/07/20 11:37:29;;;;;;;13.95;9.30;;;;;;;31.07;70.83;100345.06;5057826;28;66835;-44
2023/07/20 11:40:01;;;;;;;15.07;9.88;;;;;;;31.34;70.83;100396.94;5055662;28;70341;-44
2023/07/20 11:42:35;;;;;;;19.70;10.32;;;;;;;31.04;75.50;100410.56;5052506;28;65788;-43
2023/07/20 11:45:09;;;;;;;19.58;10.75;;;;;;;30.86;75.80;100397.06;5070538;28;69165;-42
2023/07/20 11:47:45;;;;;;;15.18;9.15;;;;;;;30.84;76.21;100432.53;5049184;28;65768;-43
2023/07/20 11:50:16;;;;;;;15.07;9.20;;;;;;;30.77;76.08;100431.75;5056805;28;70926;-43
2023/07/20 11:52:48;;;;;;;10.35;8.48;;;;;;;30.69;76.56;100435.59;5056287;28;65144;-44